Time;durP1;ratioP1;P1;durP2;ratioP2;P2;SDS_P1;SDS_P2;PMS_P1;PMS_P2;Temp;Humidity;BMP_temperature;BMP_pressure;BME280_temperature;BME280_humidity;BME280_pressure;Samples;Min_cycle;Max_cycle;Signal;HPM_P1;HPM_P2
2022/06/27 00:01:29;;;;;;;4.80;4.70;;;;;;;17.76;100.00;66056.69;5115898;28;20579;-70
2022/06/27 00:03:56;;;;;;;4.43;4.43;;;;;;;17.76;100.00;66062.50;5114014;28;20227;-70
2022/06/27 00:06:22;;;;;;;4.23;4.23;;;;;;;17.74;100.00;66055.03;5113926;28;20246;-69
2022/06/27 00:08:49;;;;;;;5.30;5.30;;;;;;;;;;5115487;28;20196;-70
2022/06/27 00:11:18;;;;;;;4.97;4.77;;;;;;;17.68;100.00;66050.38;5114190;28;20201;-70
2022/06/27 00:13:45;;;;;;;5.00;5.00;;;;;;;;;;5113397;28;20258;-70
2022/06/27 00:16:12;;;;;;;5.07;4.97;;;;;;;17.65;100.00;66044.97;5112632;28;20599;-69
2022/06/27 00:18:58;;;;;;;5.30;5.10;;;;;;;;;;5113902;28;20206;-70
2022/06/27 00:21:24;;;;;;;5.00;5.00;;;;;;;17.49;100.00;66027.09;5114457;28;20181;-70
2022/06/27 00:23:51;;;;;;;4.30;4.20;;;;;;;17.45;100.00;66025.84;5113730;28;20185;-69
2022/06/27 00:26:17;;;;;;;4.20;4.20;;;;;;;;;;5110977;28;20230;-70
2022/06/27 00:28:44;;;;;;;4.53;4.50;;;;;;;17.43;100.00;66025.66;5113527;28;20268;-69
2022/06/27 00:31:10;;;;;;;4.77;4.77;;;;;;;;;;5096143;28;20200;-70
2022/06/27 00:33:37;;;;;;;4.43;4.10;;;;;;;17.44;100.00;66021.53;5113541;28;20637;-70
2022/06/27 00:36:03;;;;;;;6.10;5.87;;;;;;;17.45;100.00;66023.22;5112036;28;20192;-70
2022/06/27 00:38:30;;;;;;;5.60;5.60;;;;;;;17.45;100.00;66023.22;5113114;28;20197;-70
2022/06/27 00:40:56;;;;;;;4.20;4.20;;;;;;;17.44;100.00;66014.22;5114476;28;20215;-71
2022/06/27 00:43:22;;;;;;;4.13;4.13;;;;;;;;;;5097562;28;20240;-70
2022/06/27 00:45:49;;;;;;;5.13;5.00;;;;;;;;;;5114716;28;20235;-70
2022/06/27 00:48:15;;;;;;;4.60;4.60;;;;;;;;;;5095806;28;20242;-72
2022/06/27 00:50:42;;;;;;;4.90;4.50;;;;;;;17.41;100.00;66020.81;5113144;28;20189;-71
2022/06/27 00:53:10;;;;;;;4.30;4.30;;;;;;;;;;5093148;28;20277;-70
2022/06/27 00:55:36;;;;;;;5.10;5.00;;;;;;;17.29;100.00;66005.38;5111185;28;20224;-70
2022/06/27 00:58:03;;;;;;;4.73;4.53;;;;;;;17.25;100.00;65996.22;5114027;28;20185;-71
2022/06/27 01:00:30;;;;;;;5.03;4.90;;;;;;;;;;5099040;28;20659;-71
2022/06/27 01:02:56;;;;;;;4.87;4.77;;;;;;;17.25;100.00;65993.59;5094917;28;20289;-70
2022/06/27 01:05:23;;;;;;;5.50;5.30;;;;;;;17.28;100.00;65993.75;5095717;28;20250;-71
2022/06/27 01:07:50;;;;;;;4.33;4.33;;;;;;;17.31;100.00;66002.34;5094766;28;20258;-71
2022/06/27 01:10:16;;;;;;;4.80;4.70;;;;;;;17.31;100.00;66016.03;5112928;28;20243;-71
2022/06/27 01:12:42;;;;;;;4.50;4.50;;;;;;;;;;5113069;28;20205;-71
2022/06/27 01:15:10;;;;;;;4.83;4.63;;;;;;;17.33;100.00;66010.38;5112831;28;20232;-71
2022/06/27 01:17:37;;;;;;;4.30;4.20;;;;;;;17.37;100.00;66008.50;5095455;28;20246;-71
2022/06/27 01:20:05;;;;;;;4.00;4.00;;;;;;;17.36;100.00;66005.31;5095017;28;20276;-71
2022/06/27 01:22:33;;;;;;;4.30;4.30;;;;;;;17.38;100.00;66009.59;5095248;28;20690;-71
2022/06/27 01:25:02;;;;;;;3.37;3.33;;;;;;;;;;5094128;28;20185;-71
2022/06/27 01:27:29;;;;;;;4.70;4.63;;;;;;;17.37;100.00;66016.91;5095453;28;20214;-71
2022/06/27 01:29:56;;;;;;;4.10;3.93;;;;;;;17.39;100.00;66011.28;5095376;28;20198;-72
2022/06/27 01:32:22;;;;;;;5.10;4.73;;;;;;;;;;5095299;28;20694;-71
2022/06/27 01:34:49;;;;;;;3.77;3.77;;;;;;;17.35;100.00;66006.81;5089995;28;20241;-71
2022/06/27 01:37:16;;;;;;;4.80;4.67;;;;;;;17.36;100.00;66012.59;5090301;28;20306;-71
2022/06/27 01:39:43;;;;;;;4.57;4.57;;;;;;;17.30;100.00;66009.66;5075085;28;20190;-71
2022/06/27 01:42:09;;;;;;;3.70;3.70;;;;;;;17.27;100.00;66008.94;5076497;28;20215;-71
2022/06/27 01:44:36;;;;;;;4.53;4.53;;;;;;;;;;5111851;28;20190;-72
2022/06/27 01:47:04;;;;;;;4.90;4.60;;;;;;;;;;5095251;28;20280;-71
2022/06/27 01:49:31;;;;;;;5.10;5.00;;;;;;;;;;5084650;28;20189;-71
2022/06/27 01:52:01;;;;;;;5.77;5.40;;;;;;;17.32;100.00;66011.91;5094145;28;20263;-70
2022/06/27 01:54:31;;;;;;;4.97;4.67;;;;;;;;;;5104002;28;20683;-72
2022/06/27 01:56:59;;;;;;;4.87;4.77;;;;;;;17.21;100.00;65997.00;5080749;28;20194;-71
2022/06/27 01:59:27;;;;;;;4.60;4.50;;;;;;;17.14;100.00;65991.81;5093576;28;20628;-71
2022/06/27 02:01:58;;;;;;;5.43;4.90;;;;;;;;;;5097209;28;20213;-70
2022/06/27 02:04:27;;;;;;;5.37;5.07;;;;;;;17.17;100.00;65994.63;5109454;28;20213;-70
2022/06/27 02:06:55;;;;;;;5.40;5.30;;;;;;;17.15;100.00;65992.94;5086814;28;20197;-71
2022/06/27 02:09:21;;;;;;;5.17;4.97;;;;;;;17.16;100.00;65993.50;5098349;28;20189;-71
2022/06/27 02:11:51;;;;;;;8.90;5.33;;;;;;;;;;5117378;28;20209;-71
2022/06/27 02:14:20;;;;;;;4.07;4.03;;;;;;;17.08;100.00;65985.16;5097509;28;20665;-71
2022/06/27 02:16:47;;;;;;;4.63;4.63;;;;;;;17.10;100.00;65986.81;5098079;28;20193;-70
2022/06/27 02:19:19;;;;;;;4.83;4.80;;;;;;;17.10;100.00;65984.75;5097283;28;20213;-69
2022/06/27 02:21:46;;;;;;;4.60;4.50;;;;;;;;;;5093921;28;20714;-70
2022/06/27 02:24:12;;;;;;;4.97;4.87;;;;;;;;;;5113089;28;20192;-70
2022/06/27 02:26:40;;;;;;;5.00;5.00;;;;;;;;;;5116159;28;20197;-70
2022/06/27 02:29:06;;;;;;;6.03;5.80;;;;;;;17.20;100.00;65990.63;5116796;28;20222;-70
2022/06/27 02:31:33;;;;;;;5.90;5.50;;;;;;;;;;5114839;28;20246;-71
2022/06/27 02:33:59;;;;;;;5.23;5.03;;;;;;;17.22;100.00;65997.56;5114964;28;20242;-71
2022/06/27 02:36:31;;;;;;;4.70;4.70;;;;;;;17.14;100.00;65989.19;5116120;28;20675;-70
2022/06/27 02:39:00;;;;;;;5.67;5.47;;;;;;;;;;5096854;28;20189;-72
2022/06/27 02:41:27;;;;;;;5.00;5.00;;;;;;;;;;5097462;28;20194;-71
2022/06/27 02:44:04;;;;;;;3.93;3.93;;;;;;;17.05;100.00;65981.78;5096726;28;20249;-71
2022/06/27 02:46:32;;;;;;;5.73;5.60;;;;;;;17.05;100.00;65979.16;5096334;28;20569;-72
2022/06/27 02:48:59;;;;;;;4.90;4.80;;;;;;;17.01;100.00;65977.91;5093650;28;20533;-71
2022/06/27 02:51:30;;;;;;;5.23;5.13;;;;;;;17.01;100.00;65977.91;5114643;28;20280;-71
2022/06/27 02:54:02;;;;;;;6.50;6.13;;;;;;;;;;5097697;28;20208;-71
2022/06/27 02:57:10;;;;;;;7.07;6.77;;;;;;;;;;5096446;28;20230;-71
2022/06/27 02:59:41;;;;;;;6.93;6.50;;;;;;;17.00;100.00;65973.59;5093486;28;20195;-70
2022/06/27 03:02:10;;;;;;;7.97;7.47;;;;;;;16.95;100.00;65968.03;5105241;28;20212;-72
2022/06/27 03:05:00;;;;;;;7.30;6.90;;;;;;;17.03;100.00;65979.56;5115438;28;20561;-72
2022/06/27 03:07:29;;;;;;;7.83;7.33;;;;;;;;;;5097769;28;20197;-72
2022/06/27 03:10:03;;;;;;;7.00;6.57;;;;;;;16.90;100.00;65954.59;5097713;28;20189;-72
2022/06/27 03:12:31;;;;;;;8.27;8.07;;;;;;;16.93;100.00;65965.78;5093333;28;20679;-72
2022/06/27 03:14:58;;;;;;;8.00;7.70;;;;;;;;;;5082929;28;20213;-72
2022/06/27 03:17:24;;;;;;;7.77;7.47;;;;;;;;;;5094187;28;20564;-72
2022/06/27 03:20:29;;;;;;;7.63;7.27;;;;;;;;;;5099728;28;20208;-72
2022/06/27 03:23:12;;;;;;;8.27;7.90;;;;;;;16.89;100.00;65964.50;5096329;28;20213;-72
2022/06/27 03:25:42;;;;;;;8.37;7.97;;;;;;;;;;5093066;28;20186;-72
2022/06/27 03:28:10;;;;;;;8.83;8.23;;;;;;;16.86;100.00;65961.19;5096015;28;20197;-72
2022/06/27 03:30:37;;;;;;;9.17;8.87;;;;;;;16.85;100.00;65951.63;5091846;28;20197;-70
2022/06/27 03:33:04;;;;;;;8.87;8.63;;;;;;;16.83;100.00;65946.78;5090846;28;20250;-72
2022/06/27 03:35:39;;;;;;;9.20;8.73;;;;;;;16.84;100.00;65955.75;5096309;28;20295;-73
2022/06/27 03:38:07;;;;;;;9.57;9.07;;;;;;;;;;5095222;28;20212;-72
2022/06/27 03:40:34;;;;;;;9.33;8.57;;;;;;;16.80;100.00;65946.63;5097942;28;20225;-72
2022/06/27 03:43:02;;;;;;;9.67;9.03;;;;;;;16.76;100.00;65950.59;5096596;28;20240;-72
2022/06/27 03:45:28;;;;;;;10.07;9.47;;;;;;;16.74;100.00;65939.94;5096700;28;20189;-72
2022/06/27 03:47:56;;;;;;;10.37;9.60;;;;;;;;;;5096941;28;20266;-72
2022/06/27 03:50:33;;;;;;;11.07;10.37;;;;;;;16.75;100.00;65946.84;5113975;28;20643;-73
2022/06/27 03:53:00;;;;;;;14.93;9.17;;;;;;;16.77;100.00;65951.13;5096935;28;20269;-72
2022/06/27 03:55:30;;;;;;;8.00;7.60;;;;;;;;;;5095146;28;20209;-70
2022/06/27 03:57:58;;;;;;;8.80;8.37;;;;;;;16.74;100.00;65940.50;5095909;28;20194;-72
2022/06/27 04:00:32;;;;;;;8.23;7.93;;;;;;;;;;5097062;28;20748;-72
2022/06/27 04:03:01;;;;;;;9.40;9.00;;;;;;;;;;5080194;28;20609;-72
2022/06/27 04:05:47;;;;;;;7.03;6.73;;;;;;;16.73;100.00;65936.75;5096941;28;20196;-72
2022/06/27 04:08:14;;;;;;;7.83;7.40;;;;;;;;;;5097386;28;20296;-73
2022/06/27 04:10:42;;;;;;;8.10;7.80;;;;;;;;;;5096707;28;20189;-72
2022/06/27 04:13:08;;;;;;;7.90;7.73;;;;;;;16.79;100.00;65950.75;5095850;28;20574;-72
2022/06/27 04:15:35;;;;;;;7.70;7.50;;;;;;;16.74;100.00;65945.72;5112940;28;20305;-71
2022/06/27 04:18:19;;;;;;;6.57;6.37;;;;;;;16.74;100.00;65947.81;5115226;28;20258;-71
2022/06/27 04:20:58;;;;;;;7.53;7.10;;;;;;;;;;5112833;28;20192;-72
2022/06/27 04:23:34;;;;;;;7.17;6.97;;;;;;;16.81;100.00;65947.75;5096345;28;20583;-72
2022/06/27 04:26:15;;;;;;;6.73;6.60;;;;;;;;;;5082383;28;20189;-72
2022/06/27 04:28:43;;;;;;;7.47;6.50;;;;;;;16.83;100.00;65959.88;5107508;28;20185;-72
2022/06/27 04:31:10;;;;;;;7.60;6.87;;;;;;;16.84;100.00;65956.31;5096179;28;20189;-72
2022/06/27 04:33:37;;;;;;;6.77;6.47;;;;;;;;;;5096044;28;20254;-72
2022/06/27 04:36:04;;;;;;;6.63;6.33;;;;;;;;;;5112850;28;20197;-72
2022/06/27 04:38:31;;;;;;;7.87;7.40;;;;;;;;;;5096087;28;20193;-72
2022/06/27 04:41:27;;;;;;;8.17;7.53;;;;;;;;;;5081813;28;20250;-72
2022/06/27 04:43:53;;;;;;;6.40;6.20;;;;;;;16.91;100.00;65956.25;5096109;28;20199;-71
2022/06/27 04:46:20;;;;;;;5.70;5.60;;;;;;;;;;5095868;28;20625;-72
2022/06/27 04:49:03;;;;;;;7.13;6.50;;;;;;;16.95;100.00;65970.66;5095603;28;20538;-71
2022/06/27 04:51:30;;;;;;;5.97;5.87;;;;;;;16.97;100.00;65965.00;5095390;28;20197;-72
2022/06/27 04:53:57;;;;;;;6.73;6.33;;;;;;;16.99;100.00;65965.16;5101578;28;20193;-72
2022/06/27 04:56:24;;;;;;;6.23;6.10;;;;;;;17.00;100.00;65968.34;5096943;28;20205;-72
2022/06/27 04:58:50;;;;;;;5.60;5.50;;;;;;;;;;5113898;28;20624;-72
2022/06/27 05:01:18;;;;;;;7.47;7.17;;;;;;;17.02;100.00;65978.44;5091956;28;20282;-73
2022/06/27 05:03:51;;;;;;;6.60;6.13;;;;;;;;;;5094222;28;20185;-71
2022/06/27 05:06:23;;;;;;;6.97;6.67;;;;;;;17.00;100.00;65976.22;5097446;28;20200;-72
2022/06/27 05:08:50;;;;;;;7.70;7.20;;;;;;;;;;5095566;28;20626;-72
2022/06/27 05:11:16;;;;;;;7.60;7.27;;;;;;;16.87;100.00;65961.75;5094983;28;20193;-72
2022/06/27 05:13:43;;;;;;;8.07;7.67;;;;;;;;;;5111152;28;20213;-72
2022/06/27 05:16:19;;;;;;;6.80;6.60;;;;;;;16.94;100.00;65961.66;5095220;28;20205;-73
2022/06/27 05:18:46;;;;;;;7.17;7.07;;;;;;;16.93;100.00;65968.41;5094213;28;20185;-73
2022/06/27 05:21:33;;;;;;;7.30;6.80;;;;;;;;;;5096463;28;20608;-72
2022/06/27 05:23:59;;;;;;;7.60;7.10;;;;;;;16.89;100.00;65961.34;5108985;28;20189;-73
2022/06/27 05:26:26;;;;;;;7.13;6.80;;;;;;;16.91;100.00;65955.69;5096151;28;20192;-73
2022/06/27 05:28:53;;;;;;;7.20;7.00;;;;;;;16.83;100.00;65946.78;5095349;28;20205;-72
2022/06/27 05:31:20;;;;;;;7.20;7.00;;;;;;;16.85;100.00;65962.13;5094561;28;20200;-72
2022/06/27 05:33:47;;;;;;;7.03;6.60;;;;;;;16.86;100.00;65957.97;5095011;28;20719;-72
2022/06/27 05:36:13;;;;;;;6.73;6.30;;;;;;;;;;5094242;28;20209;-72
2022/06/27 05:38:40;;;;;;;8.07;7.63;;;;;;;16.94;100.00;65969.53;5114373;28;20235;-72
2022/06/27 05:41:07;;;;;;;5.90;5.80;;;;;;;;;;5100827;28;20667;-72
2022/06/27 05:43:34;;;;;;;7.57;7.27;;;;;;;;;;5099193;28;20588;-72
2022/06/27 05:46:01;;;;;;;7.20;6.47;;;;;;;16.95;100.00;65962.78;5098233;28;20614;-72
2022/06/27 05:49:00;;;;;;;7.17;6.97;;;;;;;16.96;100.00;65963.91;5099459;28;20221;-73
2022/06/27 05:51:30;;;;;;;6.93;6.83;;;;;;;;;;5098284;28;20192;-73
2022/06/27 05:53:57;;;;;;;6.60;6.23;;;;;;;16.96;100.00;65969.69;5098863;28;20193;-72
2022/06/27 05:56:24;;;;;;;5.57;5.57;;;;;;;16.95;100.00;65963.34;5098589;28;20205;-73
2022/06/27 05:58:52;;;;;;;6.93;6.60;;;;;;;16.97;100.00;65972.88;5097553;28;20709;-72
2022/06/27 06:01:19;;;;;;;7.80;7.60;;;;;;;;;;5100746;28;20280;-72
2022/06/27 06:03:46;;;;;;;7.17;7.03;;;;;;;16.99;100.00;65972.47;5088486;28;20201;-72
2022/06/27 06:06:13;;;;;;;7.63;7.00;;;;;;;16.98;100.00;65971.91;5097237;28;20330;-72
2022/06/27 06:08:40;;;;;;;7.07;6.87;;;;;;;17.00;100.00;65973.59;5116531;28;20246;-72
2022/06/27 06:11:07;;;;;;;8.40;8.03;;;;;;;16.98;100.00;65979.22;5098795;28;20185;-73
2022/06/27 06:13:34;;;;;;;6.97;6.37;;;;;;;17.00;100.00;65976.22;5115744;28;20217;-72
2022/06/27 06:16:01;;;;;;;6.27;5.83;;;;;;;17.02;100.00;65967.97;5098468;28;20209;-72
2022/06/27 06:18:30;;;;;;;6.50;6.20;;;;;;;17.04;100.00;65972.81;5098503;28;20189;-72
2022/06/27 06:20:57;;;;;;;6.47;6.37;;;;;;;17.04;100.00;65983.31;5099266;28;20192;-72
2022/06/27 06:23:26;;;;;;;5.97;5.90;;;;;;;17.02;100.00;65970.59;5098534;28;20581;-72
2022/06/27 06:25:52;;;;;;;7.30;7.10;;;;;;;;;;5102732;28;20193;-72
2022/06/27 06:28:19;;;;;;;7.63;7.33;;;;;;;16.98;100.00;65966.69;5115975;28;20200;-72
2022/06/27 06:30:47;;;;;;;7.57;7.27;;;;;;;16.94;100.00;65961.66;5100456;28;20272;-72
2022/06/27 06:33:16;;;;;;;6.77;6.27;;;;;;;16.96;100.00;65963.91;5098351;28;20258;-73
2022/06/27 06:35:42;;;;;;;7.67;7.47;;;;;;;17.09;100.00;65983.06;5097448;28;20201;-73
2022/06/27 06:38:09;;;;;;;7.23;6.93;;;;;;;17.09;100.00;65973.16;5115299;28;20647;-73
2022/06/27 06:40:35;;;;;;;8.60;7.40;;;;;;;;;;5097084;28;20193;-73
2022/06/27 06:43:03;;;;;;;6.13;6.03;;;;;;;17.11;100.00;65988.47;5115504;28;20242;-73
2022/06/27 06:45:35;;;;;;;6.97;6.67;;;;;;;;;;5116490;28;20169;-73
2022/06/27 06:48:13;;;;;;;5.40;5.30;;;;;;;;;;5097614;28;20189;-73
2022/06/27 06:50:41;;;;;;;5.83;5.60;;;;;;;17.22;100.00;65997.56;5097310;28;20198;-73
2022/06/27 06:53:07;;;;;;;7.40;7.20;;;;;;;;;;5114948;28;20237;-73
2022/06/27 06:55:34;;;;;;;7.60;7.30;;;;;;;17.33;100.00;65941.59;5114840;28;20258;-73
2022/06/27 06:58:00;;;;;;;7.03;6.83;;;;;;;17.34;100.00;66010.94;5115778;28;20647;-73
2022/06/27 07:00:27;;;;;;;7.07;6.67;;;;;;;17.35;100.00;66006.81;5114383;28;20931;-71
2022/06/27 07:02:55;;;;;;;5.97;5.87;;;;;;;17.35;100.00;66012.06;5111516;28;20205;-72
2022/06/27 07:05:22;;;;;;;6.50;6.03;;;;;;;;;;5114911;28;20602;-72
2022/06/27 07:07:51;;;;;;;6.50;6.30;;;;;;;17.40;100.00;66017.06;5111958;28;20185;-73
2022/06/27 07:10:18;;;;;;;6.83;6.63;;;;;;;;;;5111800;28;20193;-71
2022/06/27 07:12:45;;;;;;;5.70;5.60;;;;;;;;;;5110690;28;20304;-73
2022/06/27 07:15:12;;;;;;;7.40;7.10;;;;;;;17.50;100.00;66030.84;5113016;28;20663;-72
2022/06/27 07:17:45;;;;;;;6.33;6.10;;;;;;;;;;5109999;28;20651;-72
2022/06/27 07:20:12;;;;;;;7.53;7.13;;;;;;;;;;5113314;28;20213;-72
2022/06/27 07:22:40;;;;;;;6.40;6.17;;;;;;;;;;5115637;28;20594;-72
2022/06/27 07:25:07;;;;;;;6.47;6.37;;;;;;;;;;5113738;28;20229;-72
2022/06/27 07:27:34;;;;;;;7.43;7.23;;;;;;;17.43;100.00;66015.16;5115025;28;20220;-72
2022/06/27 07:30:04;;;;;;;7.17;6.97;;;;;;;17.44;100.00;66024.72;5114667;28;20205;-72
2022/06/27 07:32:31;;;;;;;6.40;6.23;;;;;;;17.41;100.00;66020.81;5115407;28;20717;-72
2022/06/27 07:34:58;;;;;;;5.90;5.80;;;;;;;;;;5115476;28;20246;-72
2022/06/27 07:37:25;;;;;;;5.57;5.47;;;;;;;17.39;100.00;66019.16;5094211;28;20293;-70
2022/06/27 07:39:52;;;;;;;6.10;5.90;;;;;;;17.42;100.00;66019.31;5113598;28;20599;-72
2022/06/27 07:42:18;;;;;;;8.10;7.53;;;;;;;17.42;100.00;66019.84;5115086;28;20220;-72
2022/06/27 07:44:45;;;;;;;5.90;5.80;;;;;;;17.43;100.00;66015.75;5113116;28;20545;-72
2022/06/27 07:47:11;;;;;;;6.40;6.30;;;;;;;17.44;100.00;66014.22;5113699;28;20224;-72
2022/06/27 07:49:38;;;;;;;7.60;7.13;;;;;;;;;;5114655;28;20247;-72
2022/06/27 07:52:06;;;;;;;5.80;5.60;;;;;;;17.39;100.00;66015.97;5110776;28;20240;-72
2022/06/27 07:54:32;;;;;;;7.00;6.70;;;;;;;;;;5113591;28;20196;-72
2022/06/27 07:57:00;;;;;;;6.50;6.40;;;;;;;17.48;100.00;66020.75;5113580;28;20225;-72
2022/06/27 07:59:29;;;;;;;6.37;6.27;;;;;;;17.49;100.00;66035.53;5115023;28;20196;-73
2022/06/27 08:01:55;;;;;;;6.30;6.20;;;;;;;17.54;100.00;66024.81;5103358;28;20225;-72
2022/06/27 08:04:22;;;;;;;6.93;6.77;;;;;;;;;;5114352;28;20647;-71
2022/06/27 08:06:50;;;;;;;6.03;5.83;;;;;;;;;;5113273;28;20595;-72
2022/06/27 08:09:21;;;;;;;7.43;6.47;;;;;;;17.60;100.00;66039.94;5113812;28;20524;-72
2022/06/27 08:11:47;;;;;;;7.03;6.83;;;;;;;17.58;100.00;66032.47;5114567;28;20217;-71
2022/06/27 08:14:18;;;;;;;7.10;7.00;;;;;;;;;;5096374;28;20578;-72
2022/06/27 08:16:51;;;;;;;5.77;5.67;;;;;;;17.79;100.00;66060.03;5094539;28;20201;-72
2022/06/27 08:19:19;;;;;;;7.20;7.00;;;;;;;17.79;100.00;66062.66;5095293;28;20232;-72
2022/06/27 08:21:47;;;;;;;7.50;7.17;;;;;;;;;;5114326;28;20702;-72
2022/06/27 08:24:17;;;;;;;6.17;6.07;;;;;;;;;;5113732;28;20659;-72
2022/06/27 08:26:45;;;;;;;5.27;5.17;;;;;;;;;;5114446;28;20192;-72
2022/06/27 08:29:11;;;;;;;7.23;6.77;;;;;;;18.09;100.00;66092.94;5114469;28;20213;-71
2022/06/27 08:31:39;;;;;;;6.53;6.20;;;;;;;18.11;100.00;66030.06;5114794;28;20211;-70
2022/06/27 08:34:06;;;;;;;7.07;6.87;;;;;;;;;;5113411;28;20216;-70
2022/06/27 08:36:35;;;;;;;8.03;7.83;;;;;;;18.17;100.00;66096.63;5100443;28;20289;-71
2022/06/27 08:39:07;;;;;;;11.27;8.17;;;;;;;18.11;100.00;66090.47;5099898;28;20667;-72
2022/06/27 08:41:35;;;;;;;10.83;8.33;;;;;;;18.06;100.00;66089.59;5112511;28;20192;-71
2022/06/27 08:44:04;;;;;;;7.83;7.53;;;;;;;18.10;100.00;66101.94;5114442;28;20217;-72
2022/06/27 08:46:31;;;;;;;7.20;7.00;;;;;;;;;;5113536;28;20595;-71
2022/06/27 08:48:58;;;;;;;6.97;6.87;;;;;;;18.12;100.00;66091.59;5113352;28;20260;-71
2022/06/27 08:51:25;;;;;;;8.87;8.37;;;;;;;18.15;100.00;66100.22;5112581;28;20201;-71
2022/06/27 08:53:54;;;;;;;8.13;7.97;;;;;;;18.07;100.00;66085.44;5112248;28;20196;-71
2022/06/27 08:56:22;;;;;;;7.97;7.57;;;;;;;18.06;100.00;66100.66;5112491;28;20224;-71
2022/06/27 08:58:49;;;;;;;9.53;8.70;;;;;;;;;;5112319;28;20242;-72
2022/06/27 09:01:22;;;;;;;8.93;8.73;;;;;;;18.02;100.00;66087.78;5111602;28;20271;-71
2022/06/27 09:04:06;;;;;;;9.17;8.43;;;;;;;18.01;100.00;66076.16;5107194;28;20268;-71
2022/06/27 09:06:36;;;;;;;8.60;7.83;;;;;;;;;;5108793;28;20185;-71
2022/06/27 09:09:08;;;;;;;9.43;8.93;;;;;;;18.10;100.00;66088.81;5113956;28;20246;-71
2022/06/27 09:11:39;;;;;;;10.20;9.67;;;;;;;;;;5113723;28;20185;-73
2022/06/27 09:14:26;;;;;;;10.17;9.07;;;;;;;;;;5106750;28;20280;-72
2022/06/27 09:17:00;;;;;;;8.73;8.53;;;;;;;18.07;100.00;66093.34;5113354;28;20193;-71
2022/06/27 09:19:46;;;;;;;9.60;8.93;;;;;;;18.14;100.00;66093.84;5098614;28;20185;-71
2022/06/27 09:22:15;;;;;;;9.47;9.07;;;;;;;18.25;100.00;66105.00;5107751;28;20240;-71
2022/06/27 09:25:14;;;;;;;9.63;9.33;;;;;;;18.22;100.00;66106.91;5110477;28;20197;-71
2022/06/27 09:27:45;;;;;;;9.30;8.80;;;;;;;;;;5106156;28;20227;-71
2022/06/27 09:30:32;;;;;;;10.37;9.87;;;;;;;18.32;100.00;66118.63;5112218;28;20280;-72
2022/06/27 09:32:59;;;;;;;10.57;9.93;;;;;;;18.28;100.00;66114.13;5108687;28;20329;-71
2022/06/27 09:35:35;;;;;;;10.30;9.57;;;;;;;18.40;100.00;66130.16;5109153;28;20189;-72
2022/06/27 09:38:07;;;;;;;11.50;10.93;;;;;;;18.29;100.00;66117.31;5107208;28;20235;-72
2022/06/27 09:40:36;;;;;;;11.17;10.70;;;;;;;18.28;100.00;66114.13;5108988;28;20204;-71
2022/06/27 09:43:05;;;;;;;12.90;12.20;;;;;;;;;;5112455;28;20300;-72
2022/06/27 09:45:32;;;;;;;16.93;14.07;;;;;;;18.28;100.00;66113.59;5111214;28;20231;-71
2022/06/27 09:48:04;;;;;;;16.80;15.10;;;;;;;;;;5112781;28;20659;-72
2022/06/27 09:50:34;;;;;;;15.33;13.70;;;;;;;18.23;100.00;66110.66;5111210;28;20756;-72
2022/06/27 09:53:01;;;;;;;25.83;17.50;;;;;;;;;;5112397;28;20250;-72
2022/06/27 09:55:28;;;;;;;25.60;18.57;;;;;;;18.39;100.00;66126.44;5110761;28;20250;-72
2022/06/27 09:57:56;;;;;;;26.37;18.77;;;;;;;;;;5111842;28;20652;-72
2022/06/27 10:00:23;;;;;;;20.40;17.87;;;;;;;;;;5092968;28;20358;-72
2022/06/27 10:02:51;;;;;;;25.60;16.80;;;;;;;18.43;100.00;66122.44;5107242;28;20239;-72
2022/06/27 10:05:19;;;;;;;17.87;15.97;;;;;;;18.46;100.00;66127.88;5092855;28;20208;-72
2022/06/27 10:08:06;;;;;;;17.50;15.73;;;;;;;;;;5092907;28;20190;-72
2022/06/27 10:11:10;;;;;;;20.80;17.77;;;;;;;18.56;100.00;66136.94;5093435;28;20166;-72
2022/06/27 10:13:38;;;;;;;18.17;16.60;;;;;;;18.61;100.00;66084.13;5092725;28;20233;-72
2022/06/27 10:16:23;;;;;;;14.80;13.43;;;;;;;18.72;100.00;66156.91;5092674;28;20725;-72
2022/06/27 10:19:02;;;;;;;12.87;12.10;;;;;;;18.80;100.00;66173.19;5093442;28;20171;-72
2022/06/27 10:21:31;;;;;;;10.07;9.70;;;;;;;;;;5093036;28;20182;-72
2022/06/27 10:24:16;;;;;;;10.57;9.87;;;;;;;18.93;100.00;66180.34;5092761;28;20224;-72
2022/06/27 10:26:43;;;;;;;8.47;8.03;;;;;;;;;;5106786;28;20221;-72
2022/06/27 10:29:32;;;;;;;8.30;8.00;;;;;;;18.97;100.00;66181.63;5114369;28;20213;-72
2022/06/27 10:32:04;;;;;;;7.67;7.47;;;;;;;19.09;100.00;66195.03;5110652;28;20353;-71
2022/06/27 10:34:40;;;;;;;6.23;6.13;;;;;;;19.14;100.00;66202.66;5114617;28;20651;-71
2022/06/27 10:37:33;;;;;;;7.40;7.30;;;;;;;;;;5113043;28;20569;-72
2022/06/27 10:40:21;;;;;;;5.23;5.13;;;;;;;19.10;98.57;66198.22;5107116;28;20249;-71
2022/06/27 10:42:56;;;;;;;7.70;7.50;;;;;;;;;;5114596;28;20254;-72
2022/06/27 10:45:24;;;;;;;7.60;7.30;;;;;;;19.12;99.74;66201.00;5116225;28;20189;-72
2022/06/27 10:47:58;;;;;;;7.17;7.07;;;;;;;19.17;100.00;66203.41;5113298;28;20213;-72
2022/06/27 10:50:28;;;;;;;7.10;6.93;;;;;;;19.22;100.00;66212.19;5117834;28;20200;-73
2022/06/27 10:53:13;;;;;;;7.53;7.17;;;;;;;;;;5116013;28;20291;-72
2022/06/27 10:55:40;;;;;;;7.63;7.37;;;;;;;19.16;99.83;66210.75;5116945;28;20212;-73
2022/06/27 10:58:21;;;;;;;7.27;7.17;;;;;;;19.18;99.45;66212.97;5116297;28;20197;-73
2022/06/27 11:00:48;;;;;;;8.97;8.67;;;;;;;;;;5114827;28;20550;-73
2022/06/27 11:03:22;;;;;;;9.47;8.93;;;;;;;;;;5111719;28;20281;-73
2022/06/27 11:05:52;;;;;;;10.83;10.23;;;;;;;;;;5114317;28;20232;-73
2022/06/27 11:08:22;;;;;;;10.33;9.83;;;;;;;;;;5115009;28;20226;-72
2022/06/27 11:10:50;;;;;;;10.80;10.07;;;;;;;19.16;100.00;66213.38;5098116;28;20238;-72
2022/06/27 11:13:34;;;;;;;9.13;8.87;;;;;;;;;;5097006;28;20209;-72
2022/06/27 11:16:05;;;;;;;9.13;8.50;;;;;;;19.14;100.00;66208.50;5116545;28;20600;-73
2022/06/27 11:18:50;;;;;;;8.97;8.67;;;;;;;;;;5115943;28;20217;-73
2022/06/27 11:21:22;;;;;;;9.37;8.90;;;;;;;19.26;99.48;66221.34;5115159;28;20658;-73
2022/06/27 11:23:59;;;;;;;8.93;8.43;;;;;;;19.25;99.12;66212.88;5114861;28;20185;-72
2022/06/27 11:26:27;;;;;;;8.90;8.47;;;;;;;;;;5106072;28;20177;-73
2022/06/27 11:34:29;;;;;;;9.40;9.10;;;;;;;19.39;100.00;66230.59;5116189;28;20540;-73
2022/06/27 11:36:56;;;;;;;9.50;9.07;;;;;;;;;;5097435;28;20193;-73
2022/06/27 11:39:31;;;;;;;9.40;8.50;;;;;;;;;;5125277;27;20216;-73
2022/06/27 11:41:59;;;;;;;9.67;8.73;;;;;;;;;;5131029;27;20614;-72
2022/06/27 11:44:27;;;;;;;9.70;8.77;;;;;;;;;;5115359;28;20185;-72
2022/06/27 11:47:04;;;;;;;9.70;9.20;;;;;;;;;;5115628;28;20200;-72
2022/06/27 11:49:39;;;;;;;9.37;9.07;;;;;;;19.22;100.00;66216.88;5118254;27;20231;-73
2022/06/27 11:52:12;;;;;;;8.33;8.03;;;;;;;19.15;100.00;66209.06;5124108;27;20615;-72
2022/06/27 11:54:42;;;;;;;14.17;9.70;;;;;;;;;;5135699;27;20238;-72
2022/06/27 11:57:28;;;;;;;9.37;8.90;;;;;;;;;;5136245;27;20222;-72
2022/06/27 11:59:56;;;;;;;9.43;9.03;;;;;;;19.15;100.00;66203.81;5135628;27;20275;-72
2022/06/27 12:02:36;;;;;;;10.80;10.20;;;;;;;19.16;100.00;66205.47;5135511;27;20228;-72
2022/06/27 12:05:11;;;;;;;9.70;9.30;;;;;;;19.20;100.00;66207.31;5135535;27;20611;-72
2022/06/27 12:07:52;;;;;;;10.03;9.33;;;;;;;;;;5135748;27;20210;-71
2022/06/27 12:11:16;;;;;;;11.37;10.30;;;;;;;;;;5135958;27;20165;-72
2022/06/27 12:13:33;;;;;;;11.70;10.87;;;;;;;19.24;100.00;66213.84;5135909;27;20234;-72
2022/06/27 12:16:01;;;;;;;8.87;8.47;;;;;;;19.32;100.00;66222.78;5135496;27;20207;-72
2022/06/27 12:18:35;;;;;;;10.87;10.20;;;;;;;;;;5135653;27;20558;-72
2022/06/27 12:21:01;;;;;;;10.90;9.90;;;;;;;19.43;100.00;66232.44;5135329;27;20192;-73
2022/06/27 12:23:28;;;;;;;11.50;10.63;;;;;;;;;;5135008;27;20218;-73
2022/06/27 12:25:54;;;;;;;10.63;10.00;;;;;;;19.61;100.00;66259.34;5135034;27;20208;-73
2022/06/27 12:28:20;;;;;;;11.17;10.37;;;;;;;;;;5134989;27;20204;-73
2022/06/27 12:30:47;;;;;;;10.90;10.10;;;;;;;;;;5134935;27;20181;-73
2022/06/27 12:33:13;;;;;;;11.27;9.97;;;;;;;19.84;100.00;66276.56;5135015;27;20639;-73
2022/06/27 12:35:40;;;;;;;10.63;9.97;;;;;;;;;;5134796;27;20208;-73
2022/06/27 12:38:07;;;;;;;10.20;9.00;;;;;;;19.95;100.00;66299.41;5135006;27;20197;-73
2022/06/27 12:40:35;;;;;;;12.27;11.23;;;;;;;19.90;98.23;66283.84;5134751;27;20176;-73
2022/06/27 12:43:03;;;;;;;10.23;9.80;;;;;;;19.97;97.78;66291.66;5116810;27;20637;-73
2022/06/27 12:45:34;;;;;;;11.10;10.47;;;;;;;19.93;97.66;66286.63;5134698;27;20169;-73
2022/06/27 12:48:02;;;;;;;12.40;11.73;;;;;;;;;;5134264;27;20181;-74
2022/06/27 12:50:29;;;;;;;14.17;12.90;;;;;;;19.69;96.50;66263.00;5135239;27;20237;-73